Terminal Aerodrome Forecast
Issued by NWS

Home | Current Version | Previous Version | Text Only | Print | Product List | Glossary On
Versions: 1 2 3 4 5 6 7 8 9 10 11 12 13 14
996
FTPA31 PHFO 040543
TAFHKO
TAF
PHKO 040543Z 0406/0506 20005KT P6SM FEW025 BKN050
     FM041200 VRB03KT P6SM FEW025 BKN050
     FM041500 VRB03KT P6SM FEW050
     FM041900 24008KT P6SM SCT025 SCT050
     FM050000 24008KT P6SM SCT025 BKN050=

USA.gov is the U.S. government's official web portal to all federal, state and local government web resources and services.